^^

Weather Underground History

Daily Summary for November 22, 2019 Units:  Metric    English   Both
Daily Weekly Monthly Yearly Custom
  Current: High: Low: Average:
Temperature: 5.4 °C 5.4 °C 4.3 °C 4.9 °C
Dew Point: 4.7 °C 4.7 °C 3.4 °C 4 °C
Humidity: 95% 95% 94% 94%
Wind Speed: 9.8km/h 13.1km/h 7.8km/h 10.7km/h
Wind Gust: 19.3km/h 24.1km/h - -
WindESE - - East
Pressure: 995.2 hPa 997.5 hPa 995.2 hPa -
Precipitation: 3.6 mm      
Historical Graphs
 
 
Tabular Data for November 22, 2019
Time Temperature Dew Point Pressure Wind Wind Speed Wind Gust Humidity Rainfall Rate (Hourly) solar
00:04 4.3 °C 3.4 °C 997.5 hPa East 9.5 km/h 17.7 km/h 94% 0.0 mm 0 W/m2
00:09 4.3 °C 3.5 °C 997.5 hPa East 10.5 km/h 17.7 km/h 94% 0.0 mm 0 W/m2
00:14 4.3 °C 3.5 °C 997.4 hPa ESE 10.5 km/h 19.3 km/h 94% 0.0 mm 0 W/m2
00:19 4.4 °C 3.5 °C 997.3 hPa East 9.6 km/h 19.3 km/h 94% 0.0 mm 0 W/m2
00:24 4.4 °C 3.5 °C 997.3 hPa East 11.3 km/h 19.3 km/h 94% 0.0 mm 0 W/m2
00:29 4.4 °C 3.6 °C 997.1 hPa East 9 km/h 19.3 km/h 94% 0.0 mm 0 W/m2
00:34 4.5 °C 3.6 °C 997.1 hPa East 10.1 km/h 22.5 km/h 94% 0.0 mm 0 W/m2
00:39 4.5 °C 3.6 °C 997.1 hPa East 7.8 km/h 22.5 km/h 94% 0.0 mm 0 W/m2
00:44 4.5 °C 3.6 °C 997.0 hPa East 10.7 km/h 19.3 km/h 94% 0.0 mm 0 W/m2
00:49 4.5 °C 3.6 °C 997.0 hPa East 9.3 km/h 17.7 km/h 94% 0.0 mm 0 W/m2
00:54 4.5 °C 3.6 °C 997.0 hPa ESE 10.1 km/h 17.7 km/h 94% 0.0 mm 0 W/m2
00:59 4.5 °C 3.6 °C 996.9 hPa East 9.4 km/h 12.9 km/h 94% 0.0 mm 0 W/m2
01:04 4.5 °C 3.6 °C 996.9 hPa East 8.3 km/h 12.9 km/h 94% 0.0 mm 0 W/m2
01:09 4.5 °C 3.7 °C 996.9 hPa East 10.2 km/h 16.1 km/h 94% 0.0 mm 0 W/m2
01:14 4.6 °C 3.7 °C 996.8 hPa East 11.8 km/h 22.5 km/h 94% 0.0 mm 0 W/m2
01:19 4.6 °C 3.7 °C 996.8 hPa ESE 10.8 km/h 22.5 km/h 94% 0.0 mm 0 W/m2
01:24 4.6 °C 3.8 °C 996.8 hPa ESE 9.4 km/h 19.3 km/h 94% 0.0 mm 0 W/m2
01:29 4.7 °C 3.8 °C 996.7 hPa East 10.9 km/h 17.7 km/h 94% 1.3 mm 0 W/m2
01:34 4.7 °C 3.8 °C 996.6 hPa East 11.3 km/h 17.7 km/h 94% 1.3 mm 0 W/m2
01:39 4.7 °C 3.8 °C 996.6 hPa ESE 12.9 km/h 22.5 km/h 94% 1.3 mm 0 W/m2
01:44 4.7 °C 3.9 °C 996.6 hPa East 11.7 km/h 22.5 km/h 94% 1.3 mm 0 W/m2
01:49 4.8 °C 3.9 °C 996.6 hPa ESE 12.8 km/h 19.3 km/h 94% 0.8 mm 0 W/m2
01:54 4.8 °C 3.9 °C 996.5 hPa East 11.9 km/h 22.5 km/h 94% 0.0 mm 0 W/m2
01:59 4.8 °C 3.9 °C 996.5 hPa ESE 10.9 km/h 22.5 km/h 94% 0.0 mm 0 W/m2
02:04 4.8 °C 3.9 °C 996.5 hPa East 11.9 km/h 19.3 km/h 94% 0.0 mm 0 W/m2
02:09 4.8 °C 4 °C 996.4 hPa East 13.1 km/h 24.1 km/h 94% 0.0 mm 0 W/m2
02:14 4.9 °C 4 °C 996.4 hPa East 10.4 km/h 24.1 km/h 94% 1.5 mm 0 W/m2
02:19 4.9 °C 4 °C 996.4 hPa East 12.9 km/h 20.9 km/h 94% 1.5 mm 0 W/m2
02:24 4.9 °C 4 °C 996.3 hPa East 12.5 km/h 19.3 km/h 94% 1.5 mm 0 W/m2
02:29 4.9 °C 4.1 °C 996.2 hPa ESE 10.3 km/h 20.9 km/h 94% 1.0 mm 0 W/m2
02:34 4.9 °C 4.1 °C 996.2 hPa East 10.8 km/h 20.9 km/h 94% 3.3 mm 0 W/m2
02:39 4.9 °C 4.1 °C 996.2 hPa East 11.3 km/h 19.3 km/h 94% 3.0 mm 0 W/m2
02:44 5 °C 4.1 °C 996.1 hPa East 12.2 km/h 19.3 km/h 94% 1.5 mm 0 W/m2
02:49 5 °C 4.1 °C 996.0 hPa East 12.3 km/h 19.3 km/h 94% 3.3 mm 0 W/m2
02:54 5 °C 4.1 °C 995.9 hPa East 11.2 km/h 17.7 km/h 94% 3.3 mm 0 W/m2
02:59 5 °C 4.2 °C 995.9 hPa East 11.3 km/h 19.3 km/h 94% 2.3 mm 0 W/m2
03:04 5.1 °C 4.2 °C 995.8 hPa East 9.7 km/h 14.5 km/h 94% 3.6 mm 0 W/m2
03:09 5.1 °C 4.2 °C 995.8 hPa East 11.5 km/h 19.3 km/h 94% 3.6 mm 0 W/m2
03:14 5.1 °C 4.2 °C 995.7 hPa East 11.5 km/h 19.3 km/h 94.2% 1.8 mm 0 W/m2
03:19 5.1 °C 4.2 °C 995.7 hPa East 10.3 km/h 17.7 km/h 94% 1.0 mm 0 W/m2
03:24 5.1 °C 4.2 °C 995.7 hPa ESE 10.7 km/h 17.7 km/h 94.2% 2.3 mm 0 W/m2
03:29 5.1 °C 4.4 °C 995.7 hPa ESE 11 km/h 19.3 km/h 95% 2.3 mm 0 W/m2
03:34 5.1 °C 4.3 °C 995.6 hPa ESE 11.8 km/h 20.9 km/h 94.7% 1.3 mm 0 W/m2
03:39 5.2 °C 4.3 °C 995.6 hPa East 10.7 km/h 17.7 km/h 94% 1.8 mm 0 W/m2
03:44 5.2 °C 4.3 °C 995.6 hPa East 10.2 km/h 14.5 km/h 94% 1.8 mm 0 W/m2
03:49 5.2 °C 4.4 °C 995.5 hPa East 10.8 km/h 14.5 km/h 94.4% 1.8 mm 0 W/m2
03:54 5.2 °C 4.5 °C 995.5 hPa ESE 10.2 km/h 17.7 km/h 95% 1.0 mm 0 W/m2
03:59 5.3 °C 4.5 °C 995.4 hPa East 10.9 km/h 14.5 km/h 95% 2.3 mm 0 W/m2
04:04 5.3 °C 4.5 °C 995.4 hPa East 11.1 km/h 19.3 km/h 95% 2.3 mm 0 W/m2
04:09 5.3 °C 4.5 °C 995.3 hPa ESE 10.9 km/h 14.5 km/h 95% 1.5 mm 0 W/m2
04:14 5.3 °C 4.6 °C 995.3 hPa ESE 9.4 km/h 14.5 km/h 95% 1.0 mm 0 W/m2
04:19 5.3 °C 4.6 °C 995.2 hPa ESE 9.8 km/h 14.5 km/h 95% 1.8 mm 0 W/m2
04:24 5.4 °C 4.6 °C 995.2 hPa ESE 8.8 km/h 14.5 km/h 95% 1.8 mm 0 W/m2
04:29 5.4 °C 4.7 °C 995.2 hPa ESE 9.8 km/h 19.3 km/h 95% 1.5 mm 0 W/m2
Compliments of Weather Underground - 2.5 mb